createdAt,value
2018-05-21T00:01:08.399Z,85.40
2018-05-21T00:03:34.647Z,85.60
2018-05-21T00:06:01.632Z,85.90
2018-05-21T00:08:27.861Z,85.70
2018-05-21T00:10:54.115Z,86.00
2018-05-21T00:13:20.335Z,85.80
2018-05-21T00:15:46.567Z,86.10
2018-05-21T00:18:13.857Z,86.10
2018-05-21T00:20:40.799Z,86.70
2018-05-21T00:23:07.772Z,86.90
2018-05-21T00:25:34.001Z,86.80
2018-05-21T00:28:00.252Z,87.30
2018-05-21T00:30:26.495Z,87.30
2018-05-21T00:32:52.839Z,87.20
2018-05-21T00:35:19.080Z,87.50
2018-05-21T00:37:45.320Z,88.00
2018-05-21T00:40:12.277Z,88.70
2018-05-21T00:42:38.531Z,88.50
2018-05-21T00:45:04.816Z,88.40
2018-05-21T00:47:31.744Z,89.70
2018-05-21T00:49:58.023Z,89.40
2018-05-21T00:52:24.224Z,89.40
2018-05-21T00:55:03.507Z,90.00
2018-05-21T00:57:29.711Z,90.00
2018-05-21T00:59:55.940Z,90.00
2018-05-21T01:02:22.194Z,90.10
2018-05-21T01:04:48.472Z,90.30
2018-05-21T01:07:15.420Z,90.60
2018-05-21T01:09:42.359Z,90.80
2018-05-21T01:12:09.321Z,91.00
2018-05-21T01:14:36.285Z,91.20
2018-05-21T01:17:02.524Z,91.20
2018-05-21T01:19:28.756Z,91.30
2018-05-21T01:21:54.999Z,91.40
2018-05-21T01:24:21.251Z,91.60
2018-05-21T01:26:47.491Z,91.90
2018-05-21T01:29:15.180Z,92.10
2018-05-21T01:31:41.404Z,92.10
2018-05-21T01:34:07.747Z,92.30
2018-05-21T01:36:33.894Z,92.70
2018-05-21T01:39:00.161Z,92.70
2018-05-21T01:41:27.093Z,93.10
2018-05-21T01:43:53.347Z,93.10
2018-05-21T01:46:20.295Z,93.30
2018-05-21T01:48:47.259Z,93.50
2018-05-21T01:51:13.540Z,93.50
2018-05-21T01:53:39.762Z,93.90
2018-05-21T01:56:06.024Z,94.00
2018-05-21T01:58:32.943Z,94.60
2018-05-21T02:00:59.196Z,94.60
2018-05-21T02:03:26.222Z,95.20
2018-05-21T02:05:52.396Z,95.20
2018-05-21T02:08:18.681Z,95.40
2018-05-21T02:10:44.873Z,95.50
2018-05-21T02:13:11.132Z,95.90
2018-05-21T02:15:37.359Z,96.10
2018-05-21T02:18:03.695Z,96.70
2018-05-21T02:20:30.879Z,97.00
2018-05-21T02:22:58.043Z,97.10
2018-05-21T02:25:24.460Z,97.60
2018-05-21T02:27:51.430Z,98.60
2018-05-21T02:33:13.332Z,99.30
2018-05-21T02:35:39.580Z,99.30
2018-05-21T02:38:06.511Z,99.90
2018-05-21T02:40:32.662Z,99.90
2018-05-21T02:42:58.874Z,99.90
2018-05-21T02:45:25.065Z,99.90
2018-05-21T02:47:52.078Z,99.90
2018-05-21T02:50:18.246Z,99.90
2018-05-21T02:52:44.490Z,99.90
2018-05-21T02:55:10.727Z,99.90
2018-05-21T02:57:36.867Z,99.90
2018-05-21T03:00:03.107Z,99.90
2018-05-21T03:02:29.389Z,99.90
2018-05-21T03:04:56.309Z,99.90
2018-05-21T03:07:22.579Z,99.90
2018-05-21T03:09:49.525Z,99.90
2018-05-21T03:12:15.744Z,99.90
2018-05-21T03:14:41.892Z,99.90
2018-05-21T03:17:08.876Z,99.90
2018-05-21T03:19:35.890Z,99.90
2018-05-21T03:22:02.063Z,99.90
2018-05-21T03:24:28.321Z,99.90
2018-05-21T03:26:54.543Z,99.90
2018-05-21T03:29:20.863Z,99.90
2018-05-21T03:31:47.040Z,99.90
2018-05-21T03:34:13.256Z,99.90
2018-05-21T03:36:39.426Z,99.90
2018-05-21T03:39:05.698Z,99.90
2018-05-21T03:41:32.612Z,99.90
2018-05-21T03:43:58.767Z,99.90
2018-05-21T03:46:25.008Z,99.90
2018-05-21T03:48:51.227Z,99.90
2018-05-21T03:51:17.461Z,99.90
2018-05-21T03:53:43.616Z,99.90
2018-05-21T03:56:09.753Z,99.90
2018-05-21T03:58:48.302Z,99.90
2018-05-21T04:01:26.729Z,99.90
2018-05-21T04:03:54.721Z,99.90
2018-05-21T04:06:21.667Z,99.90
2018-05-21T04:08:47.908Z,99.90
2018-05-21T04:11:14.874Z,99.90
2018-05-21T04:13:41.112Z,99.90
2018-05-21T04:16:07.254Z,99.90
2018-05-21T04:18:33.387Z,99.90
2018-05-21T04:20:59.625Z,99.90
2018-05-21T04:23:25.770Z,99.90
2018-05-21T04:25:51.944Z,99.90
2018-05-21T04:28:18.895Z,99.90
2018-05-21T04:30:45.158Z,99.90
2018-05-21T04:33:12.103Z,99.90
2018-05-21T04:35:39.104Z,99.90
2018-05-21T04:38:05.266Z,99.90
2018-05-21T04:40:31.406Z,99.90
2018-05-21T04:42:57.639Z,99.90
2018-05-21T04:45:23.783Z,99.90
2018-05-21T04:47:50.031Z,99.90
2018-05-21T04:50:16.179Z,99.90
2018-05-21T04:52:42.328Z,99.90
2018-05-21T04:55:08.559Z,99.90
2018-05-21T04:57:34.701Z,99.90
2018-05-21T05:00:01.668Z,99.90
2018-05-21T05:02:27.927Z,99.90
2018-05-21T05:04:54.186Z,99.90
2018-05-21T05:07:20.395Z,99.90
2018-05-21T05:09:46.519Z,99.90
2018-05-21T05:12:12.691Z,99.90
2018-05-21T05:14:38.946Z,99.90
2018-05-21T05:17:05.167Z,99.90
2018-05-21T05:19:31.318Z,99.90
2018-05-21T05:21:57.577Z,99.90
2018-05-21T05:24:24.521Z,99.90
2018-05-21T05:26:50.764Z,99.90
2018-05-21T05:29:17.006Z,99.90
2018-05-21T05:31:43.242Z,99.90
2018-05-21T05:34:09.422Z,99.90
2018-05-21T05:36:36.342Z,99.90
2018-05-21T05:39:02.510Z,99.90
2018-05-21T05:41:29.689Z,99.90
2018-05-21T05:43:56.658Z,99.90
2018-05-21T05:46:22.847Z,99.90
2018-05-21T05:48:49.045Z,99.90
2018-05-21T05:51:16.733Z,99.90
2018-05-21T05:53:42.946Z,99.90
2018-05-21T05:56:09.137Z,99.90
2018-05-21T05:58:35.325Z,99.90
2018-05-21T06:01:04.376Z,99.90
2018-05-21T06:03:30.547Z,99.90
2018-05-21T06:05:56.778Z,99.90
2018-05-21T06:08:23.733Z,99.90
2018-05-21T06:10:49.885Z,99.90
2018-05-21T06:13:16.030Z,99.90
2018-05-21T06:15:42.167Z,99.90
2018-05-21T06:18:08.327Z,99.90
2018-05-21T06:20:34.550Z,99.90
2018-05-21T06:23:00.886Z,99.90
2018-05-21T06:25:27.018Z,99.90
2018-05-21T06:27:53.127Z,99.90
2018-05-21T06:30:19.315Z,99.90
2018-05-21T06:32:45.465Z,99.90
2018-05-21T06:35:12.446Z,99.90
2018-05-21T06:37:38.731Z,99.90
2018-05-21T06:40:04.929Z,99.90
2018-05-21T06:42:31.196Z,99.90
2018-05-21T06:44:58.023Z,99.90
2018-05-21T06:47:26.497Z,99.90
2018-05-21T06:49:52.828Z,99.90
2018-05-21T06:52:19.017Z,99.90
2018-05-21T06:54:46.729Z,99.90
2018-05-21T06:57:13.040Z,99.90
2018-05-21T06:59:40.118Z,99.90
2018-05-21T07:02:06.298Z,99.90
2018-05-21T07:04:32.473Z,99.90
2018-05-21T07:06:58.890Z,99.90
2018-05-21T07:09:25.397Z,99.90
2018-05-21T07:11:51.660Z,99.90
2018-05-21T07:14:17.851Z,99.90
2018-05-21T07:16:44.111Z,99.90
2018-05-21T07:19:11.060Z,99.90
2018-05-21T07:21:37.266Z,99.90
2018-05-21T07:24:03.427Z,99.90
2018-05-21T07:26:29.562Z,99.90
2018-05-21T07:28:55.732Z,99.90
2018-05-21T07:31:22.726Z,99.90
2018-05-21T07:33:48.935Z,99.90
2018-05-21T07:36:15.867Z,99.90
2018-05-21T07:38:42.189Z,99.90
2018-05-21T07:41:08.357Z,99.90
2018-05-21T07:43:34.607Z,99.90
2018-05-21T07:46:00.815Z,99.90
2018-05-21T07:48:27.027Z,99.90
2018-05-21T07:50:53.214Z,99.90
2018-05-21T07:53:21.066Z,99.90
2018-05-21T07:55:47.255Z,99.90
2018-05-21T07:58:13.502Z,99.90
2018-05-21T08:00:39.795Z,99.90
2018-05-21T08:03:05.961Z,99.90
2018-05-21T08:05:32.114Z,99.90
2018-05-21T08:07:58.261Z,99.90
2018-05-21T08:10:24.486Z,99.90
2018-05-21T08:12:50.630Z,99.90
2018-05-21T08:15:16.754Z,99.90
2018-05-21T08:17:42.904Z,99.90
2018-05-21T08:20:09.335Z,99.90
2018-05-21T08:22:35.603Z,99.90
2018-05-21T08:25:01.793Z,99.90
2018-05-21T08:27:28.203Z,99.90
2018-05-21T08:29:54.504Z,99.90
2018-05-21T08:32:20.687Z,99.90
2018-05-21T08:34:46.931Z,99.90
2018-05-21T08:37:13.159Z,99.90
2018-05-21T08:39:39.350Z,99.90
2018-05-21T08:42:05.632Z,99.90
2018-05-21T08:44:33.898Z,99.90
2018-05-21T08:47:00.159Z,99.90
2018-05-21T08:49:26.421Z,99.90
2018-05-21T08:51:52.999Z,99.90
2018-05-21T08:54:20.053Z,99.90
2018-05-21T08:56:47.077Z,99.90
2018-05-21T08:59:13.320Z,99.90
2018-05-21T09:01:39.517Z,99.90
2018-05-21T09:04:06.781Z,99.90
2018-05-21T09:06:33.091Z,99.90
2018-05-21T09:08:59.190Z,99.90
2018-05-21T09:11:25.315Z,99.90
2018-05-21T09:13:52.180Z,99.90
2018-05-21T09:16:20.600Z,99.90
2018-05-21T09:18:47.445Z,99.90
2018-05-21T09:21:14.292Z,99.90
2018-05-21T09:23:40.427Z,99.90
2018-05-21T09:26:07.325Z,99.90
2018-05-21T09:28:33.411Z,99.90
2018-05-21T09:31:00.278Z,99.90
2018-05-21T09:33:27.853Z,99.90
2018-05-21T09:35:56.456Z,99.90
2018-05-21T09:38:24.664Z,99.90
2018-05-21T09:40:51.243Z,99.90
2018-05-21T09:43:17.482Z,99.90
2018-05-21T09:45:43.623Z,99.90
2018-05-21T09:48:09.738Z,99.90
2018-05-21T09:50:35.938Z,99.90
2018-05-21T09:53:02.048Z,99.90
2018-05-21T09:55:28.335Z,99.90
2018-05-21T09:57:55.183Z,99.90
2018-05-21T10:00:23.337Z,99.90
2018-05-21T10:02:49.478Z,99.90
2018-05-21T10:05:17.721Z,99.90
2018-05-21T10:07:43.959Z,99.90
2018-05-21T10:10:10.891Z,99.90
2018-05-21T10:12:37.093Z,99.90
2018-05-21T10:15:03.260Z,99.90
2018-05-21T10:17:29.473Z,99.90
2018-05-21T10:19:55.612Z,99.90
2018-05-21T10:22:21.741Z,99.90
2018-05-21T10:24:48.207Z,99.90
2018-05-21T10:27:14.362Z,99.90
2018-05-21T10:29:40.514Z,99.90
2018-05-21T10:32:06.688Z,99.90
2018-05-21T10:34:33.624Z,99.60
2018-05-21T10:36:59.749Z,99.60
2018-05-21T10:39:25.900Z,99.90
2018-05-21T10:41:52.032Z,99.20
2018-05-21T10:44:18.151Z,99.20
2018-05-21T10:46:44.303Z,98.30
2018-05-21T10:49:10.423Z,98.10
2018-05-21T10:51:36.562Z,98.40
2018-05-21T10:54:02.699Z,97.80
2018-05-21T10:56:28.823Z,98.90
2018-05-21T10:58:54.941Z,98.90
2018-05-21T11:01:21.822Z,98.70
2018-05-21T11:03:47.932Z,98.50
2018-05-21T11:06:14.137Z,98.00
2018-05-21T11:08:40.247Z,97.20
2018-05-21T11:11:06.363Z,97.50
2018-05-21T11:13:32.466Z,97.20
2018-05-21T11:15:58.579Z,96.60
2018-05-21T11:18:24.695Z,97.10
2018-05-21T11:20:51.547Z,97.50
2018-05-21T11:23:18.416Z,97.10
2018-05-21T11:25:44.546Z,97.10
2018-05-21T11:28:11.414Z,96.50
2018-05-21T11:30:37.518Z,96.50
2018-05-21T11:33:03.652Z,97.10
2018-05-21T11:35:29.786Z,97.00
2018-05-21T11:37:55.907Z,96.10
2018-05-21T11:40:22.061Z,96.10
2018-05-21T11:42:48.196Z,95.70
2018-05-21T11:45:14.580Z,95.90
2018-05-21T11:47:41.451Z,95.20
2018-05-21T11:50:08.313Z,95.40
2018-05-21T11:52:34.466Z,95.40
2018-05-21T11:55:00.587Z,95.60
2018-05-21T11:57:27.453Z,95.70
2018-05-21T11:59:53.594Z,95.70
2018-05-21T12:02:19.712Z,95.00
2018-05-21T12:04:46.565Z,95.30
2018-05-21T12:07:12.726Z,95.30
2018-05-21T12:09:39.584Z,96.20
2018-05-21T12:12:06.444Z,95.50
2018-05-21T12:14:32.571Z,95.50
2018-05-21T12:16:59.450Z,94.60
2018-05-21T12:19:25.571Z,94.50
2018-05-21T12:21:52.418Z,94.40
2018-05-21T12:24:18.538Z,94.60
2018-05-21T12:26:44.663Z,95.40
2018-05-21T12:29:10.786Z,94.90
2018-05-21T12:31:36.917Z,94.10
2018-05-21T12:34:03.104Z,93.30
2018-05-21T12:36:29.223Z,93.40
2018-05-21T12:38:56.815Z,93.60
2018-05-21T12:41:23.056Z,92.90
2018-05-21T12:43:49.301Z,91.70
2018-05-21T12:46:15.457Z,89.70
2018-05-21T12:48:41.583Z,87.40
2018-05-21T12:51:07.692Z,83.70
2018-05-21T12:53:33.814Z,82.50
2018-05-21T13:00:58.223Z,78.70
2018-05-21T13:03:25.726Z,71.90
2018-05-21T13:05:52.704Z,68.30
2018-05-21T13:08:18.827Z,67.50
2018-05-21T13:10:45.670Z,65.10
2018-05-21T13:13:11.784Z,65.10
2018-05-21T13:15:37.943Z,65.00
2018-05-21T13:18:04.082Z,64.00
2018-05-21T13:20:45.159Z,62.70
2018-05-21T13:23:11.262Z,62.50
2018-05-21T13:25:37.387Z,62.00
2018-05-21T13:28:03.515Z,61.40
2018-05-21T13:30:30.367Z,60.40
2018-05-21T13:32:57.235Z,59.60
2018-05-21T13:35:23.364Z,59.50
2018-05-21T13:37:50.222Z,58.70
2018-05-21T13:40:17.159Z,58.50
2018-05-21T13:42:43.258Z,58.50
2018-05-21T13:45:09.414Z,59.20
2018-05-21T13:47:35.547Z,59.40
2018-05-21T13:50:01.690Z,58.40
2018-05-21T13:52:27.885Z,58.40
2018-05-21T13:54:53.970Z,57.00
2018-05-21T13:57:20.130Z,56.50
2018-05-21T13:59:46.258Z,57.40
2018-05-21T14:02:12.392Z,56.70
2018-05-21T14:04:38.511Z,56.70
2018-05-21T14:07:04.637Z,55.60
2018-05-21T14:09:31.494Z,55.10
2018-05-21T14:11:58.355Z,55.40
2018-05-21T14:14:25.224Z,55.40
2018-05-21T14:16:51.361Z,55.40
2018-05-21T14:19:17.476Z,55.80
2018-05-21T14:21:43.732Z,55.50
2018-05-21T14:24:10.494Z,55.50
2018-05-21T14:26:39.675Z,55.90
2018-05-21T14:29:05.850Z,55.90
2018-05-21T14:31:31.996Z,55.90
2018-05-21T14:33:58.164Z,55.30
2018-05-21T14:36:24.279Z,55.10
2018-05-21T14:38:50.403Z,55.40
2018-05-21T14:41:21.057Z,55.60
2018-05-21T14:43:47.932Z,55.60
2018-05-21T14:46:14.084Z,55.60
2018-05-21T14:48:40.214Z,55.20
2018-05-21T14:51:06.337Z,55.30
2018-05-21T14:53:33.229Z,54.70
2018-05-21T14:55:59.353Z,54.60
2018-05-21T14:58:25.487Z,55.40
2018-05-21T15:00:51.611Z,55.20
2018-05-21T15:03:19.976Z,54.00
2018-05-21T15:05:46.431Z,53.90
2018-05-21T15:08:12.973Z,55.00
2018-05-21T15:10:39.160Z,55.00
2018-05-21T15:13:05.329Z,54.80
2018-05-21T15:15:31.468Z,54.90
2018-05-21T15:17:58.291Z,54.90
2018-05-21T15:20:24.414Z,55.00
2018-05-21T15:22:51.337Z,54.70
2018-05-21T15:25:17.525Z,54.70
2018-05-21T15:27:45.840Z,54.10
2018-05-21T15:30:11.955Z,54.00
2018-05-21T15:32:38.823Z,54.50
2018-05-21T15:35:04.979Z,54.40
2018-05-21T15:37:31.275Z,54.90
2018-05-21T15:39:58.438Z,54.60
2018-05-21T15:42:24.585Z,55.10
2018-05-21T15:44:50.709Z,54.20
2018-05-21T15:47:16.867Z,55.00
2018-05-21T15:49:42.993Z,54.80
2018-05-21T15:52:09.152Z,54.40
2018-05-21T15:54:35.299Z,54.50
2018-05-21T15:57:01.430Z,55.00
2018-05-21T15:59:28.298Z,55.20
2018-05-21T16:01:55.221Z,55.20
2018-05-21T16:04:22.941Z,55.10
2018-05-21T16:06:49.839Z,54.90
2018-05-21T16:09:15.975Z,54.90
2018-05-21T16:11:43.777Z,54.60
2018-05-21T16:14:09.947Z,55.70
2018-05-21T16:16:36.858Z,56.30
2018-05-21T16:19:02.972Z,56.30
2018-05-21T16:21:29.130Z,56.60
2018-05-21T16:23:57.127Z,56.40
2018-05-21T16:26:23.328Z,56.80
2018-05-21T16:28:50.304Z,57.00
2018-05-21T16:31:16.469Z,57.10
2018-05-21T16:33:42.623Z,57.00
2018-05-21T16:36:10.471Z,58.00
2018-05-21T16:38:36.619Z,57.50
2018-05-21T16:41:02.793Z,57.60
2018-05-21T16:43:28.919Z,56.90
2018-05-21T16:45:55.048Z,56.70
2018-05-21T16:48:21.893Z,56.90
2018-05-21T16:50:48.034Z,56.80
2018-05-21T16:53:14.205Z,57.20
2018-05-21T16:55:40.379Z,57.80
2018-05-21T16:58:07.240Z,58.20
2018-05-21T17:00:34.120Z,58.50
2018-05-21T17:03:00.252Z,58.50
2018-05-21T17:05:26.369Z,59.40
2018-05-21T17:07:52.487Z,60.10
2018-05-21T17:10:18.615Z,60.10
2018-05-21T17:12:44.746Z,60.70
2018-05-21T17:15:10.860Z,61.40
2018-05-21T17:17:37.051Z,62.10
2018-05-21T17:20:03.190Z,62.00
2018-05-21T17:22:29.328Z,62.60
2018-05-21T17:24:56.282Z,63.60
2018-05-21T17:27:23.274Z,64.00
2018-05-21T17:29:49.423Z,63.90
2018-05-21T17:32:18.837Z,64.20
2018-05-21T17:35:00.655Z,64.10
2018-05-21T17:37:28.712Z,65.10
2018-05-21T17:40:01.937Z,65.00
2018-05-21T17:42:28.426Z,65.40
2018-05-21T17:44:57.449Z,66.30
2018-05-21T17:47:24.772Z,67.70
2018-05-21T17:49:51.761Z,66.60
2018-05-21T17:52:18.687Z,66.50
2018-05-21T17:54:46.095Z,66.50
2018-05-21T17:57:12.446Z,66.40
2018-05-21T17:59:39.867Z,67.20
2018-05-21T18:02:06.655Z,66.40
2018-05-21T18:04:32.754Z,66.80
2018-05-21T18:06:59.619Z,66.40
2018-05-21T18:09:25.798Z,67.20
2018-05-21T18:11:52.179Z,67.10
2018-05-21T18:14:18.351Z,67.10
2018-05-21T18:16:46.039Z,67.30
2018-05-21T18:19:12.927Z,67.40
2018-05-21T18:21:39.086Z,67.30
2018-05-21T18:24:05.260Z,67.70
2018-05-21T18:26:31.761Z,67.40
2018-05-21T18:28:58.199Z,67.40
2018-05-21T18:31:24.385Z,67.30
2018-05-21T18:33:50.551Z,67.10
2018-05-21T18:36:17.812Z,68.10
2018-05-21T18:38:44.151Z,67.40
2018-05-21T18:41:10.291Z,67.10
2018-05-21T18:43:36.418Z,68.10
2018-05-21T18:46:02.570Z,67.90
2018-05-21T18:48:28.686Z,69.20
2018-05-21T18:50:54.888Z,69.00
2018-05-21T18:53:21.017Z,68.80
2018-05-21T18:55:47.922Z,70.20
2018-05-21T18:58:14.050Z,70.20
2018-05-21T19:00:40.218Z,69.80
2018-05-21T19:03:06.352Z,71.00
2018-05-21T19:05:32.576Z,70.90
2018-05-21T19:08:00.136Z,71.60
2018-05-21T19:10:26.363Z,71.70
2018-05-21T19:12:52.576Z,71.70
2018-05-21T19:15:18.735Z,72.50
2018-05-21T19:17:45.593Z,73.50
2018-05-21T19:20:12.513Z,73.50
2018-05-21T19:22:38.636Z,73.50
2018-05-21T19:25:04.787Z,74.20
2018-05-21T19:27:30.954Z,74.20
2018-05-21T19:29:57.186Z,74.00
2018-05-21T19:32:23.303Z,74.20
2018-05-21T19:34:49.667Z,74.40
2018-05-21T19:37:15.806Z,74.40
2018-05-21T19:39:42.110Z,75.00
2018-05-21T19:42:08.614Z,75.20
2018-05-21T19:44:34.792Z,75.30
2018-05-21T19:47:02.251Z,75.80
2018-05-21T19:49:29.761Z,76.10
2018-05-21T19:51:58.821Z,76.10
2018-05-21T19:54:29.209Z,77.80
2018-05-21T19:56:55.481Z,77.70
2018-05-21T19:59:21.678Z,77.00
2018-05-21T20:01:47.990Z,78.70
2018-05-21T20:04:17.950Z,79.30
2018-05-21T20:06:45.005Z,79.70
2018-05-21T20:09:12.020Z,79.50
2018-05-21T20:11:38.182Z,79.40
2018-05-21T20:14:04.343Z,79.60
2018-05-21T20:16:31.262Z,79.70
2018-05-21T20:18:57.392Z,79.50
2018-05-21T20:21:23.531Z,79.50
2018-05-21T20:23:49.695Z,79.90
2018-05-21T20:26:15.855Z,80.40
2018-05-21T20:28:42.080Z,80.80
2018-05-21T20:31:08.393Z,81.00
2018-05-21T20:33:34.551Z,82.20
2018-05-21T20:36:00.722Z,82.60
2018-05-21T20:38:27.553Z,83.40
2018-05-21T20:40:53.864Z,83.40
2018-05-21T20:43:20.023Z,84.60
2018-05-21T20:45:46.162Z,84.00
2018-05-21T20:48:14.192Z,84.30
2018-05-21T20:50:40.403Z,83.60
2018-05-21T20:53:06.555Z,85.10
2018-05-21T20:55:32.662Z,85.40
2018-05-21T20:57:58.817Z,86.50
2018-05-21T21:00:24.973Z,87.50
2018-05-21T21:02:51.108Z,86.20
2018-05-21T21:05:17.264Z,85.90
2018-05-21T21:07:43.379Z,86.00
2018-05-21T21:10:09.483Z,86.20
2018-05-21T21:12:35.696Z,87.20
2018-05-21T21:15:01.898Z,87.70
2018-05-21T21:17:28.063Z,88.60
2018-05-21T21:19:54.188Z,87.30
2018-05-21T21:22:21.436Z,88.40
2018-05-21T21:24:47.627Z,88.40
2018-05-21T21:27:13.834Z,87.80
2018-05-21T21:29:40.806Z,89.00
2018-05-21T21:32:07.102Z,88.20
2018-05-21T21:34:34.032Z,89.30
2018-05-21T21:37:00.286Z,89.10
2018-05-21T21:39:27.232Z,89.20
2018-05-21T21:41:53.489Z,89.00
2018-05-21T21:44:19.740Z,89.80
2018-05-21T21:46:45.981Z,89.90
2018-05-21T21:49:12.269Z,90.00
2018-05-21T21:51:38.436Z,89.80
2018-05-21T21:54:04.597Z,89.60
2018-05-21T21:56:31.548Z,90.10
2018-05-21T21:58:57.788Z,90.10
2018-05-21T22:01:24.064Z,90.40
2018-05-21T22:03:50.304Z,90.70
2018-05-21T22:06:16.519Z,90.40
2018-05-21T22:08:42.781Z,90.70
2018-05-21T22:11:09.729Z,91.30
2018-05-21T22:13:36.688Z,91.70
2018-05-21T22:16:02.932Z,91.70
2018-05-21T22:18:29.341Z,91.40
2018-05-21T22:20:56.367Z,92.10
2018-05-21T22:23:22.573Z,92.10
2018-05-21T22:25:48.814Z,92.00
2018-05-21T22:28:15.075Z,92.20
2018-05-21T22:30:42.014Z,92.60
2018-05-21T22:33:08.992Z,92.90
2018-05-21T22:35:35.239Z,92.90
2018-05-21T22:38:01.488Z,93.00
2018-05-21T22:40:27.704Z,93.40
2018-05-21T22:42:54.102Z,93.10
2018-05-21T22:48:12.363Z,93.40
2018-05-21T22:50:38.594Z,94.00
2018-05-21T22:53:05.157Z,94.20
2018-05-21T22:55:32.309Z,94.10
2018-05-21T22:57:58.548Z,94.10
2018-05-21T23:00:24.796Z,94.40
2018-05-21T23:02:50.958Z,94.50
2018-05-21T23:05:17.104Z,95.00
2018-05-21T23:07:43.256Z,94.80
2018-05-21T23:10:09.481Z,95.10
2018-05-21T23:12:35.759Z,95.00
2018-05-21T23:15:01.965Z,95.20
2018-05-21T23:17:28.908Z,95.90
2018-05-21T23:19:55.880Z,95.90
2018-05-21T23:22:34.471Z,95.90
2018-05-21T23:25:01.460Z,96.00
2018-05-21T23:27:27.691Z,96.00
2018-05-21T23:29:53.951Z,96.40
2018-05-21T23:32:20.180Z,96.40
2018-05-21T23:34:46.440Z,97.00
2018-05-21T23:37:13.400Z,97.50
2018-05-21T23:39:39.632Z,97.40
2018-05-21T23:42:05.884Z,97.60
2018-05-21T23:44:32.120Z,97.90
2018-05-21T23:46:58.369Z,98.30
2018-05-21T23:49:25.334Z,98.70
2018-05-21T23:51:51.548Z,98.90
2018-05-21T23:54:17.816Z,99.00
2018-05-21T23:56:44.059Z,99.40
2018-05-21T23:59:10.299Z,99.90
